createdAt,value
2022-08-28T00:00:49.280Z,8.25
2022-08-28T00:03:18.185Z,6.63
2022-08-28T00:05:47.800Z,6.97
2022-08-28T00:08:17.923Z,7.50
2022-08-28T00:10:48.490Z,7.50
2022-08-28T00:13:21.805Z,7.28
2022-08-28T00:15:58.098Z,7.43
2022-08-28T00:18:31.893Z,7.10
2022-08-28T00:21:01.467Z,6.65
2022-08-28T00:23:42.567Z,6.28
2022-08-28T00:26:34.735Z,6.43
2022-08-28T00:29:03.626Z,6.45
2022-08-28T00:31:32.512Z,6.78
2022-08-28T00:34:04.425Z,5.07
2022-08-28T00:36:33.983Z,5.00
2022-08-28T00:39:03.024Z,5.57
2022-08-28T00:41:34.492Z,4.20
2022-08-28T00:44:12.700Z,5.53
2022-08-28T00:46:42.996Z,4.78
2022-08-28T00:49:12.195Z,4.05
2022-08-28T00:51:59.611Z,4.22
2022-08-28T00:54:29.783Z,4.50
2022-08-28T00:57:01.421Z,5.25
2022-08-28T00:59:30.393Z,3.95
2022-08-28T01:02:02.448Z,4.82
2022-08-28T01:04:33.456Z,4.30
2022-08-28T01:07:08.349Z,4.47
2022-08-28T01:12:13.099Z,4.93
2022-08-28T01:14:46.022Z,5.45
2022-08-28T01:17:16.797Z,5.18
2022-08-28T01:19:55.597Z,4.07
2022-08-28T01:22:34.987Z,5.60
2022-08-28T01:25:08.685Z,3.83
2022-08-28T01:27:37.621Z,5.20
2022-08-28T01:30:07.155Z,4.60
2022-08-28T01:32:42.915Z,4.60
2022-08-28T01:35:16.810Z,4.75
2022-08-28T01:37:46.897Z,4.35
2022-08-28T01:40:29.065Z,4.70
2022-08-28T01:43:10.962Z,4.85
2022-08-28T01:45:40.572Z,4.07
2022-08-28T01:48:10.308Z,4.90
2022-08-28T01:50:40.532Z,5.30
2022-08-28T01:53:12.296Z,5.57
2022-08-28T01:55:43.574Z,5.40
2022-08-28T01:58:13.735Z,5.72
2022-08-28T02:00:43.626Z,6.25
2022-08-28T02:03:13.794Z,5.38
2022-08-28T02:05:44.177Z,5.82
2022-08-28T02:08:14.128Z,4.95
2022-08-28T02:10:45.152Z,5.30
2022-08-28T02:13:14.693Z,5.10
2022-08-28T02:15:44.734Z,4.35
2022-08-28T02:18:14.676Z,5.10
2022-08-28T02:20:44.062Z,4.25
2022-08-28T02:23:12.842Z,5.28
2022-08-28T02:25:41.971Z,5.35
2022-08-28T02:28:12.327Z,5.22
2022-08-28T02:30:41.651Z,5.45
2022-08-28T02:33:10.516Z,5.40
2022-08-28T02:35:41.623Z,4.85
2022-08-28T02:38:10.780Z,5.93
2022-08-28T02:40:41.311Z,5.88
2022-08-28T02:43:11.624Z,5.05
2022-08-28T02:45:40.913Z,5.78
2022-08-28T02:48:17.025Z,5.50
2022-08-28T02:50:47.239Z,5.82
2022-08-28T02:53:16.319Z,4.95
2022-08-28T02:55:45.421Z,4.72
2022-08-28T02:58:15.763Z,4.53
2022-08-28T03:00:44.764Z,5.15
2022-08-28T03:03:13.630Z,4.28
2022-08-28T03:05:42.484Z,5.38
2022-08-28T03:08:11.354Z,5.05
2022-08-28T03:10:40.186Z,5.05
2022-08-28T03:13:09.057Z,4.65
2022-08-28T03:15:42.173Z,4.30
2022-08-28T03:18:15.156Z,4.90
2022-08-28T03:20:45.598Z,5.22
2022-08-28T03:23:30.273Z,4.63
2022-08-28T03:26:02.306Z,6.00
2022-08-28T03:28:34.814Z,6.05
2022-08-28T03:31:06.078Z,4.57
2022-08-28T03:33:35.174Z,5.10
2022-08-28T03:36:04.891Z,4.78
2022-08-28T03:38:33.963Z,4.80
2022-08-28T03:41:03.704Z,5.43
2022-08-28T03:43:33.619Z,5.57
2022-08-28T03:46:06.015Z,4.68
2022-08-28T03:48:37.621Z,4.63
2022-08-28T03:51:09.068Z,5.22
2022-08-28T03:53:38.414Z,5.30
2022-08-28T03:56:08.234Z,5.38
2022-08-28T03:58:37.222Z,5.18
2022-08-28T04:01:08.046Z,5.53
2022-08-28T04:03:37.772Z,5.03
2022-08-28T04:06:07.082Z,6.38
2022-08-28T04:08:35.863Z,5.38
2022-08-28T04:11:05.002Z,5.80
2022-08-28T04:13:34.376Z,5.07
2022-08-28T04:16:07.895Z,5.63
2022-08-28T04:18:39.644Z,6.32
2022-08-28T04:21:11.906Z,5.25
2022-08-28T04:23:43.801Z,5.88
2022-08-28T04:26:15.127Z,6.40
2022-08-28T04:28:45.167Z,6.10
2022-08-28T04:31:15.024Z,6.88
2022-08-28T04:33:45.783Z,6.10
2022-08-28T04:36:17.364Z,6.45
2022-08-28T04:38:46.932Z,6.65
2022-08-28T04:41:17.202Z,5.68
2022-08-28T04:43:46.192Z,6.07
2022-08-28T04:46:16.480Z,6.18
2022-08-28T04:48:46.586Z,6.00
2022-08-28T04:51:16.325Z,6.75
2022-08-28T04:53:45.692Z,7.10
2022-08-28T04:56:15.610Z,6.68
2022-08-28T04:58:45.685Z,6.95
2022-08-28T05:01:18.875Z,8.02
2022-08-28T05:03:53.256Z,35.83
2022-08-28T05:06:23.064Z,12.07
2022-08-28T05:08:54.394Z,13.63
2022-08-28T05:11:34.314Z,8.35
2022-08-28T05:14:05.591Z,35.53
2022-08-28T05:16:40.901Z,8.68
2022-08-28T05:19:11.419Z,9.20
2022-08-28T05:21:42.893Z,8.23
2022-08-28T05:24:13.952Z,9.00
2022-08-28T05:26:48.022Z,8.35
2022-08-28T05:29:17.896Z,7.85
2022-08-28T05:31:47.944Z,11.23
2022-08-28T05:34:18.851Z,9.43
2022-08-28T05:36:47.774Z,7.50
2022-08-28T05:39:18.316Z,7.55
2022-08-28T05:41:48.152Z,8.18
2022-08-28T05:44:18.607Z,7.88
2022-08-28T05:46:48.752Z,7.90
2022-08-28T05:49:23.480Z,7.70
2022-08-28T05:51:52.591Z,7.68
2022-08-28T05:54:21.459Z,8.52
2022-08-28T05:56:50.671Z,7.45
2022-08-28T05:59:19.497Z,8.13
2022-08-28T06:01:50.642Z,7.63
2022-08-28T06:04:23.886Z,7.85
2022-08-28T06:06:53.243Z,7.85
2022-08-28T06:09:28.771Z,7.90
2022-08-28T06:12:01.019Z,8.32
2022-08-28T06:14:32.440Z,7.75
2022-08-28T06:17:01.496Z,7.82
2022-08-28T06:19:36.345Z,8.43
2022-08-28T06:22:09.808Z,7.43
2022-08-28T06:24:38.863Z,8.07
2022-08-28T06:27:07.976Z,7.88
2022-08-28T06:29:36.885Z,8.45
2022-08-28T06:32:05.956Z,8.02
2022-08-28T06:34:36.194Z,8.88
2022-08-28T06:37:05.324Z,8.65
2022-08-28T06:39:34.089Z,8.63
2022-08-28T06:42:03.020Z,8.43
2022-08-28T06:44:32.501Z,7.95
2022-08-28T06:47:02.167Z,8.65
2022-08-28T06:49:31.073Z,7.82
2022-08-28T06:52:01.399Z,9.55
2022-08-28T06:54:31.153Z,8.27
2022-08-28T06:57:00.181Z,8.85
2022-08-28T06:59:29.112Z,8.57
2022-08-28T07:01:58.013Z,8.73
2022-08-28T07:04:27.800Z,7.55
2022-08-28T07:06:58.365Z,8.02
2022-08-28T07:09:28.646Z,9.05
2022-08-28T07:11:57.418Z,8.73
2022-08-28T07:14:26.459Z,7.93
2022-08-28T07:16:56.130Z,8.70
2022-08-28T07:19:25.207Z,9.48
2022-08-28T07:21:53.972Z,10.38
2022-08-28T07:24:23.505Z,9.80
2022-08-28T07:26:54.456Z,9.43
2022-08-28T07:29:23.690Z,9.18
2022-08-28T07:31:56.078Z,8.70
2022-08-28T07:34:27.302Z,9.48
2022-08-28T07:36:58.379Z,8.93
2022-08-28T07:39:27.219Z,10.55
2022-08-28T07:41:57.558Z,8.32
2022-08-28T07:44:43.758Z,9.98
2022-08-28T07:47:12.844Z,9.38
2022-08-28T07:49:42.221Z,9.35
2022-08-28T07:52:12.253Z,8.82
2022-08-28T07:54:41.703Z,9.48
2022-08-28T07:57:11.879Z,9.38
2022-08-28T07:59:43.014Z,8.43
2022-08-28T08:02:11.942Z,8.15
2022-08-28T08:04:41.304Z,9.00
2022-08-28T08:07:12.913Z,8.80
2022-08-28T08:09:44.146Z,8.75
2022-08-28T08:12:15.966Z,9.40
2022-08-28T08:14:45.513Z,9.32
2022-08-28T08:17:14.262Z,8.55
2022-08-28T08:19:43.079Z,9.00
2022-08-28T08:22:12.025Z,9.30
2022-08-28T08:24:41.824Z,9.85
2022-08-28T08:27:11.503Z,9.15
2022-08-28T08:29:41.793Z,8.60
2022-08-28T08:32:12.431Z,8.45
2022-08-28T08:34:43.218Z,8.05
2022-08-28T08:37:13.676Z,8.77
2022-08-28T08:39:44.504Z,8.07
2022-08-28T08:42:23.030Z,8.45
2022-08-28T08:45:07.417Z,7.90
2022-08-28T08:47:41.766Z,8.23
2022-08-28T08:50:17.881Z,8.85
2022-08-28T08:52:56.061Z,8.55
2022-08-28T08:55:28.948Z,7.55
2022-08-28T09:00:34.269Z,7.50
2022-08-28T09:03:07.876Z,7.25
2022-08-28T09:05:46.853Z,6.88
2022-08-28T09:08:25.408Z,7.32
2022-08-28T09:11:06.427Z,8.05
2022-08-28T09:13:54.424Z,6.97
2022-08-28T09:16:31.625Z,6.97
2022-08-28T09:19:01.849Z,7.93
2022-08-28T09:21:34.230Z,6.25
2022-08-28T09:24:08.542Z,6.97
2022-08-28T09:26:40.765Z,7.22
2022-08-28T09:29:18.186Z,6.50
2022-08-28T09:31:48.414Z,6.63
2022-08-28T09:34:27.743Z,7.03
2022-08-28T09:36:58.642Z,6.53
2022-08-28T09:39:29.674Z,6.45
2022-08-28T09:42:20.414Z,6.93
2022-08-28T09:45:00.221Z,5.97
2022-08-28T09:47:52.308Z,5.80
2022-08-28T09:50:36.551Z,6.65
2022-08-28T09:53:19.126Z,5.65
2022-08-28T09:55:57.698Z,5.22
2022-08-28T09:58:34.203Z,6.18
2022-08-28T10:01:22.233Z,6.28
2022-08-28T10:03:57.521Z,6.05
2022-08-28T10:06:32.153Z,5.80
2022-08-28T10:09:15.095Z,5.80
2022-08-28T10:11:56.138Z,7.55
2022-08-28T10:14:41.343Z,5.20
2022-08-28T10:17:21.668Z,5.93
2022-08-28T10:20:00.508Z,6.70
2022-08-28T10:22:39.823Z,6.90
2022-08-28T10:25:22.180Z,6.45
2022-08-28T10:28:05.577Z,7.43
2022-08-28T10:30:40.432Z,5.90
2022-08-28T10:33:26.504Z,6.90
2022-08-28T10:36:01.029Z,6.60
2022-08-28T10:38:40.092Z,7.07
2022-08-28T10:41:13.330Z,6.78
2022-08-28T10:43:48.024Z,6.80
2022-08-28T10:46:27.216Z,7.60
2022-08-28T10:49:00.845Z,7.57
2022-08-28T10:51:39.482Z,7.20
2022-08-28T10:54:21.017Z,6.43
2022-08-28T10:56:56.666Z,7.95
2022-08-28T10:59:27.823Z,7.07
2022-08-28T11:01:57.348Z,6.60
2022-08-28T11:04:29.325Z,6.80
2022-08-28T11:07:04.214Z,7.80
2022-08-28T11:09:36.970Z,8.07
2022-08-28T11:12:10.298Z,7.40
2022-08-28T11:14:47.960Z,6.95
2022-08-28T11:17:40.789Z,7.35
2022-08-28T11:20:16.235Z,7.67
2022-08-28T11:22:50.323Z,7.43
2022-08-28T11:25:26.532Z,7.65
2022-08-28T11:28:18.692Z,9.20
2022-08-28T11:30:49.167Z,7.45
2022-08-28T11:33:40.352Z,7.60
2022-08-28T11:36:14.296Z,7.88
2022-08-28T11:39:07.363Z,7.80
2022-08-28T11:44:42.879Z,7.93
2022-08-28T11:47:56.919Z,9.02
2022-08-28T11:50:30.315Z,8.52
2022-08-28T11:53:36.684Z,9.25
2022-08-28T11:56:31.366Z,10.55
2022-08-28T11:59:34.852Z,9.38
2022-08-28T12:02:47.767Z,10.68
2022-08-28T12:05:45.176Z,11.32
2022-08-28T12:08:45.520Z,14.55
2022-08-28T12:12:09.278Z,15.20
2022-08-28T12:15:10.210Z,14.05
2022-08-28T12:17:53.474Z,16.55
2022-08-28T12:20:39.066Z,17.55
2022-08-28T12:23:37.806Z,19.02
2022-08-28T12:26:10.215Z,17.92
2022-08-28T12:31:52.103Z,19.27
2022-08-28T12:34:29.277Z,18.40
2022-08-28T12:36:59.727Z,18.48
2022-08-28T12:39:30.145Z,18.85
2022-08-28T12:42:00.427Z,18.15
2022-08-28T12:44:33.804Z,18.08
2022-08-28T12:47:02.823Z,19.45
2022-08-28T12:49:35.323Z,19.23
2022-08-28T12:52:16.935Z,19.65
2022-08-28T12:54:47.248Z,22.10
2022-08-28T12:57:17.936Z,20.83
2022-08-28T12:59:50.074Z,20.92
2022-08-28T13:02:27.430Z,22.40
2022-08-28T13:04:59.669Z,23.65
2022-08-28T13:07:32.729Z,26.70
2022-08-28T13:10:06.744Z,26.95
2022-08-28T13:12:55.589Z,27.50
2022-08-28T13:15:57.060Z,26.85
2022-08-28T13:19:11.889Z,26.85
2022-08-28T13:21:58.633Z,29.85
2022-08-28T13:24:47.007Z,34.17
2022-08-28T13:27:23.059Z,35.08
2022-08-28T13:30:02.804Z,35.65
2022-08-28T13:32:36.809Z,36.53
2022-08-28T13:35:13.104Z,38.45
2022-08-28T13:37:45.488Z,38.67
2022-08-28T13:40:44.454Z,39.42
2022-08-28T13:43:11.856Z,45.92
2022-08-28T13:45:44.105Z,46.83
2022-08-28T13:48:16.686Z,50.33
2022-08-28T13:50:48.039Z,54.90
2022-08-28T13:53:19.443Z,55.03
2022-08-28T13:55:50.695Z,58.53
2022-08-28T13:58:19.624Z,58.25
2022-08-28T14:00:51.768Z,56.88
2022-08-28T14:03:37.645Z,59.40
2022-08-28T14:06:09.331Z,58.50
2022-08-28T14:08:38.846Z,59.15
2022-08-28T14:11:08.605Z,58.35
2022-08-28T14:13:47.140Z,55.60
2022-08-28T14:16:25.540Z,56.85
2022-08-28T14:18:55.881Z,62.45
2022-08-28T14:21:25.358Z,63.25
2022-08-28T14:23:54.120Z,62.38
2022-08-28T14:26:23.033Z,64.70
2022-08-28T14:28:52.164Z,65.20
2022-08-28T14:31:21.604Z,63.88
2022-08-28T14:33:58.679Z,59.28
2022-08-28T14:36:30.149Z,63.00
2022-08-28T14:41:35.552Z,62.25
2022-08-28T14:44:05.620Z,59.88
2022-08-28T14:46:37.013Z,58.72
2022-08-28T14:49:09.121Z,58.03
2022-08-28T14:51:39.965Z,64.90
2022-08-28T14:54:11.176Z,61.97
2022-08-28T14:56:41.901Z,60.92
2022-08-28T14:59:17.483Z,60.17
2022-08-28T15:01:52.538Z,56.67
2022-08-28T15:04:25.153Z,55.00
2022-08-28T15:07:00.030Z,55.80
2022-08-28T15:09:31.443Z,53.35
2022-08-28T15:12:00.587Z,55.88
2022-08-28T15:14:30.524Z,54.83
2022-08-28T15:17:00.367Z,56.42
2022-08-28T15:19:31.155Z,58.15
2022-08-28T15:22:00.730Z,58.30
2022-08-28T15:24:34.481Z,62.70
2022-08-28T15:27:03.582Z,64.78
2022-08-28T15:29:32.784Z,63.47
2022-08-28T15:32:04.511Z,58.65
2022-08-28T15:34:34.825Z,57.15
2022-08-28T15:37:03.692Z,58.17
2022-08-28T15:39:53.996Z,57.80
2022-08-28T15:42:23.317Z,54.15
2022-08-28T15:44:52.032Z,54.85
2022-08-28T15:47:20.893Z,51.65
2022-08-28T15:49:55.822Z,47.58
2022-08-28T15:52:26.083Z,43.92
2022-08-28T15:54:55.463Z,41.30
2022-08-28T15:57:24.589Z,38.28
2022-08-28T15:59:53.471Z,36.78
2022-08-28T16:02:24.645Z,31.98
2022-08-28T16:04:55.693Z,31.23
2022-08-28T16:07:25.145Z,26.45
2022-08-28T16:09:54.167Z,25.42
2022-08-28T16:12:23.005Z,22.17
2022-08-28T16:14:51.813Z,20.40
2022-08-28T16:17:20.569Z,17.42
2022-08-28T16:19:49.359Z,16.50
2022-08-28T16:22:20.636Z,11.68
2022-08-28T16:24:49.496Z,11.32
2022-08-28T16:27:18.806Z,10.80
2022-08-28T16:29:49.605Z,10.20
2022-08-28T16:32:23.066Z,10.23
2022-08-28T16:34:53.314Z,9.32
2022-08-28T16:37:24.487Z,9.63
2022-08-28T16:39:56.533Z,9.30
2022-08-28T16:42:30.904Z,9.45
2022-08-28T16:45:02.131Z,8.88
2022-08-28T16:47:33.215Z,9.27
2022-08-28T16:50:04.371Z,8.57
2022-08-28T16:52:36.025Z,8.20
2022-08-28T16:55:05.696Z,7.50
2022-08-28T16:57:35.163Z,7.45
2022-08-28T17:00:10.248Z,7.68
2022-08-28T17:02:39.322Z,6.00
2022-08-28T17:05:09.629Z,5.03
2022-08-28T17:07:41.082Z,5.13
2022-08-28T17:10:12.191Z,4.18
2022-08-28T17:12:41.729Z,4.38
2022-08-28T17:15:11.594Z,4.50
2022-08-28T17:17:41.002Z,4.22
2022-08-28T17:20:32.577Z,4.80
2022-08-28T17:23:02.029Z,4.55
2022-08-28T17:25:31.536Z,4.18
2022-08-28T17:28:00.593Z,4.55
2022-08-28T17:30:29.606Z,4.55
2022-08-28T17:32:58.613Z,4.75
2022-08-28T17:35:27.674Z,4.40
2022-08-28T17:37:57.162Z,4.50
2022-08-28T17:40:28.030Z,4.57
2022-08-28T17:42:57.233Z,5.03
2022-08-28T17:45:26.234Z,10.15
2022-08-28T17:47:55.539Z,5.80
2022-08-28T17:50:24.936Z,4.07
2022-08-28T17:52:53.853Z,4.95
2022-08-28T17:55:22.688Z,4.70
2022-08-28T17:57:52.847Z,4.60
2022-08-28T18:00:22.509Z,4.80
2022-08-28T18:02:52.459Z,5.05
2022-08-28T18:05:21.685Z,5.85
2022-08-28T18:07:51.068Z,4.72
2022-08-28T18:10:21.865Z,4.82
2022-08-28T18:12:53.163Z,5.18
2022-08-28T18:15:22.341Z,5.30
2022-08-28T18:17:51.244Z,4.82
2022-08-28T18:20:20.958Z,5.22
2022-08-28T18:22:50.378Z,5.30
2022-08-28T18:25:33.708Z,5.45
2022-08-28T18:30:35.659Z,5.82
2022-08-28T18:33:06.274Z,5.47
2022-08-28T18:35:42.104Z,5.82
2022-08-28T18:38:14.992Z,5.50
2022-08-28T18:40:45.750Z,5.55
2022-08-28T18:43:16.500Z,5.95
2022-08-28T18:45:45.943Z,6.47
2022-08-28T18:48:15.526Z,5.70
2022-08-28T18:50:46.567Z,6.80
2022-08-28T18:53:16.391Z,7.53
2022-08-28T18:55:46.349Z,6.20
2022-08-28T18:58:17.547Z,6.55
2022-08-28T19:00:46.834Z,5.30
2022-08-28T19:03:16.291Z,6.07
2022-08-28T19:05:45.561Z,6.90
2022-08-28T19:08:15.526Z,5.78
2022-08-28T19:10:44.748Z,6.00
2022-08-28T19:13:14.113Z,6.03
2022-08-28T19:15:50.839Z,6.28
2022-08-28T19:18:35.549Z,5.90
2022-08-28T19:21:08.665Z,6.95
2022-08-28T19:23:38.763Z,16.23
2022-08-28T19:26:13.929Z,8.68
2022-08-28T19:28:44.047Z,7.93
2022-08-28T19:31:14.814Z,7.00
2022-08-28T19:33:43.832Z,6.55
2022-08-28T19:36:13.672Z,5.57
2022-08-28T19:38:43.291Z,6.32
2022-08-28T19:41:14.602Z,6.20
2022-08-28T19:43:44.843Z,8.05
2022-08-28T19:46:20.070Z,6.53
2022-08-28T19:48:52.614Z,5.95
2022-08-28T19:51:24.429Z,5.80
2022-08-28T19:53:58.268Z,5.15
2022-08-28T19:56:29.246Z,6.35
2022-08-28T19:59:01.462Z,5.85
2022-08-28T20:01:35.477Z,6.72
2022-08-28T20:04:05.864Z,5.32
2022-08-28T20:06:36.228Z,6.45
2022-08-28T20:09:10.667Z,5.55
2022-08-28T20:11:42.336Z,5.45
2022-08-28T20:14:11.354Z,6.07
2022-08-28T20:16:44.396Z,4.93
2022-08-28T20:19:15.023Z,5.72
2022-08-28T20:21:47.143Z,5.10
2022-08-28T20:24:20.433Z,5.75
2022-08-28T20:29:18.937Z,5.28
2022-08-28T20:31:51.414Z,5.07
2022-08-28T20:34:21.990Z,4.85
2022-08-28T20:36:51.297Z,6.07
2022-08-28T20:39:21.926Z,6.40
2022-08-28T20:41:51.346Z,6.32
2022-08-28T20:44:21.507Z,5.60
2022-08-28T20:46:53.757Z,6.18
2022-08-28T20:49:24.465Z,4.95
2022-08-28T20:52:01.243Z,5.40
2022-08-28T20:54:32.967Z,5.47
2022-08-28T20:57:04.163Z,5.20
2022-08-28T20:59:35.471Z,5.95
2022-08-28T21:02:12.709Z,5.85
2022-08-28T21:04:43.022Z,6.00
2022-08-28T21:07:12.670Z,5.75
2022-08-28T21:10:04.560Z,5.82
2022-08-28T21:12:31.120Z,30.52
2022-08-28T21:15:00.512Z,8.95
2022-08-28T21:17:31.097Z,6.35
2022-08-28T21:20:04.337Z,6.30
2022-08-28T21:22:35.127Z,6.35
2022-08-28T21:25:05.783Z,6.05
2022-08-28T21:27:35.187Z,5.90
2022-08-28T21:30:04.724Z,6.68
2022-08-28T21:32:35.405Z,6.57
2022-08-28T21:35:06.319Z,6.63
2022-08-28T21:37:35.596Z,5.95
2022-08-28T21:40:06.202Z,6.32
2022-08-28T21:42:35.448Z,10.43
2022-08-28T21:45:11.209Z,8.77
2022-08-28T21:47:43.287Z,7.40
2022-08-28T21:50:13.032Z,6.85
2022-08-28T21:52:42.769Z,6.70
2022-08-28T21:55:14.766Z,6.20
2022-08-28T21:57:44.886Z,6.85
2022-08-28T22:00:18.930Z,6.65
2022-08-28T22:02:49.484Z,6.65
2022-08-28T22:05:18.608Z,6.38
2022-08-28T22:07:48.365Z,6.40
2022-08-28T22:10:17.911Z,6.13
2022-08-28T22:12:46.762Z,6.38
2022-08-28T22:15:15.781Z,7.00
2022-08-28T22:17:44.614Z,5.90
2022-08-28T22:20:15.278Z,5.80
2022-08-28T22:23:01.241Z,6.38
2022-08-28T22:25:30.349Z,7.13
2022-08-28T22:28:04.119Z,7.78
2022-08-28T22:30:33.717Z,7.32
2022-08-28T22:33:04.163Z,7.50
2022-08-28T22:35:34.571Z,7.47
2022-08-28T22:38:03.698Z,6.88
2022-08-28T22:40:33.132Z,7.22
2022-08-28T22:43:01.986Z,7.60
2022-08-28T22:45:31.323Z,7.03
2022-08-28T22:48:00.208Z,7.95
2022-08-28T22:50:29.166Z,7.00
2022-08-28T22:52:59.499Z,6.47
2022-08-28T22:55:28.592Z,6.82
2022-08-28T22:57:57.925Z,6.95
2022-08-28T23:00:29.334Z,6.88
2022-08-28T23:02:59.719Z,7.07
2022-08-28T23:05:30.278Z,7.18
2022-08-28T23:08:00.528Z,7.68
2022-08-28T23:10:55.325Z,8.25
2022-08-28T23:13:19.902Z,7.97
2022-08-28T23:15:49.161Z,7.93
2022-08-28T23:18:18.430Z,8.35
2022-08-28T23:20:47.412Z,7.28
2022-08-28T23:23:21.268Z,7.72
2022-08-28T23:25:51.415Z,8.07
2022-08-28T23:28:21.332Z,7.50
2022-08-28T23:30:50.100Z,7.18
2022-08-28T23:33:23.687Z,7.20
2022-08-28T23:35:52.965Z,6.82
2022-08-28T23:38:23.562Z,7.22
2022-08-28T23:40:52.459Z,6.97
2022-08-28T23:43:21.597Z,6.93
2022-08-28T23:45:50.579Z,6.32
2022-08-28T23:48:19.544Z,6.43
2022-08-28T23:50:48.581Z,6.35
2022-08-28T23:53:17.666Z,6.63
2022-08-28T23:55:48.649Z,4.95
2022-08-28T23:58:20.752Z,5.53
